Caldwell, ID

3:31 AM MDT on October 25, 2014 (GMT -0600)
Caldwell Industrial | Change Station
CLOSE
Current Station
Airport
Location: Caldwell,
Elevation: 2428 ft
Nearby Weather Stations

Elev 2428 ft 43.64 °N, 116.64 °W | Updated 16 minutes ago

Fog
Fog
43 °F
Feels Like 43 °F
N
0
Wind Variable Wind from North

Today
High -- | Low -- °F
--% Chance of Precip.
Yesterday
High -- | Low -- °F
Precip. -- in
8:13 AM 6:47 PM
New Moon, 2% visible
Pressure 29.92 in
Visibility 0.5 miles
Clouds Overcast 100 ft
Dew Point 34 °F
Humidity 70%
Rainfall 0.00 in
Snow Depth Not available.
UV 0 out of 12
Pollen 1.40 out of 12
PM2.5 Good
Flu Activity No Activity
METAR KEUL 250915Z AUTO 00000KT 1/2SM OVC001 06/01 A2992 RMK AO1

More Conditions Fewer Conditions

Pressure 29.92 in
Visibility 0.5 miles
Clouds Overcast 100 ft
Dew Point 34 °F
Humidity 70%
Rainfall 0.00 in
Snow Depth Not available.
UV 0 out of 12
Pollen 1.40 out of 12
PM2.5 Good
Flu Activity No Activity
METAR KEUL 250915Z AUTO 00000KT 1/2SM OVC001 06/01 A2992 RMK AO1

More Conditions Fewer Conditions

10-Day Weather Forecast

Almanac

Astronomy

Oct. 25, 2014 Rise Set
Actual Time 8:13 AM MDT 6:47 PM MDT
Civil Twilight 7:44 AM MDT 7:16 PM MDT
Nautical Twilight 7:10 AM MDT 7:50 PM MDT
Astronomical Twilight 6:37 AM MDT 8:23 PM MDT
Moon 9:59 AM MDT 8:11 PM MDT
Length of Visible Light 11h 32m
Length of Day
10h 33m
Tomorrow will be 2m 46s shorter.
New Moon, 2% of the Moon is Illuminated
Today
New Moon
Oct 30
First Quarter
Nov 6
Full
Nov 14
Last Quarter
Nov 22
New

Today's Extremes

State Highs State Lows

Community

WunderPhotos

Upload Photos

1,764,796 photos uploaded!

Nearby

Air Quality

  Air Quality AQ Index Pollutant
Yesterday Good
PM10
Yesterday Good
OZONE
Current Good
PM2.5
Saturday Good
OZONE
Sunday Good
OZONE
Monday Good
OZONE
Tuesday Good
OZONE

Snow Depth

Station Depth Elevation
Bogus Basin 0 in 6340 ft
Van Wyck 0 in 4920 ft
South Mountain 0 in 6500 ft
Trinity Mountain 1 in 7770 ft
Cozy Cove 0 in 5380 ft

Earthquake Activity

City Distance Mag. Time & Date
No recent earthquake activity has been reported nearby.
Minimum magnitude displayed is 2.5.

Coastal Water Temperatures

Place Temperature
No Stations Reporting

Nearby Weather Stations